Time,TemperatureF,DewpointF,PressureIn,WindDirection,WindDirectionDegrees,WindSpeedMPH,WindSpeedGustMPH,Humidity,HourlyPrecipIn,Conditions,Clouds,dailyrainin,SolarRadiationWatts/m^2,SoftwareType,DateUTC
2013-08-22 00:02:00,72.0,36.0,-100.00,NW,324,4.0,6.0,26,-99.99,,,-99.99,0.000000,,2013-08-22 06:02:00,
2013-08-22 00:42:00,73.0,34.0,-100.00,WNW,288,2.0,5.0,23,-99.99,,,-99.99,0.000000,,2013-08-22 06:42:00,
2013-08-22 01:12:00,74.0,33.0,-100.00,ENE,78,3.0,8.0,21,-99.99,,,-99.99,0.000000,,2013-08-22 07:12:00,
2013-08-22 01:42:00,73.0,35.0,-100.00,ENE,73,3.0,7.0,24,-99.99,,,-99.99,0.000000,,2013-08-22 07:42:00,
2013-08-22 02:12:00,70.0,37.0,-100.00,NW,326,4.0,7.0,29,-99.99,,,-99.99,0.000000,,2013-08-22 08:12:00,
2013-08-22 02:43:00,68.0,39.0,-100.00,NW,317,6.0,7.0,34,-99.99,,,-99.99,0.000000,,2013-08-22 08:43:00,
2013-08-22 03:11:00,67.0,40.0,-100.00,NW,317,6.0,8.0,37,-99.99,,,-99.99,0.000000,,2013-08-22 09:11:00,
2013-08-22 03:43:00,67.0,40.0,-100.00,NNW,328,6.0,8.0,38,-99.99,,,-99.99,0.000000,,2013-08-22 09:43:00,
2013-08-22 04:30:00,67.0,42.0,-100.00,NW,313,7.0,9.0,41,-99.99,,,-99.99,0.000000,,2013-08-22 10:30:00,
2013-08-22 04:42:00,67.0,41.0,-100.00,NW,308,6.0,9.0,38,-99.99,,,-99.99,0.000000,,2013-08-22 10:42:00,
2013-08-22 07:42:00,66.0,47.0,-100.00,North,354,5.0,7.0,49,-99.99,,,-99.99,26.500000,,2013-08-22 13:42:00,
2013-08-22 07:52:00,67.0,48.0,-100.00,North,355,5.0,7.0,51,-99.99,,,-99.99,53.689999,,2013-08-22 13:52:00,
2013-08-22 08:02:00,67.0,48.0,-100.00,North,355,5.0,7.0,51,-99.99,,,-99.99,53.689999,,2013-08-22 14:02:00,
2013-08-22 08:42:00,71.0,49.0,-100.00,NNE,15,2.0,4.0,45,-99.99,,,-99.99,186.190002,,2013-08-22 14:42:00,
2013-08-22 09:43:00,76.0,48.0,-100.00,ESE,115,5.0,7.0,37,-99.99,,,-99.99,414.910004,,2013-08-22 15:43:00,
2013-08-22 09:55:00,76.0,49.0,-100.00,East,93,4.0,7.0,38,-99.99,,,-99.99,387.019989,,2013-08-22 15:55:00,
2013-08-22 10:05:00,76.0,49.0,-100.00,East,93,4.0,7.0,38,-99.99,,,-99.99,387.019989,,2013-08-22 16:05:00,
2013-08-22 10:43:00,75.0,49.0,-100.00,ESE,113,6.0,11.0,39,-99.99,,,-99.99,467.910004,,2013-08-22 16:43:00,
2013-08-22 11:24:00,77.0,48.0,-100.00,SE,135,4.0,9.0,35,-99.99,,,-99.99,585.760010,,2013-08-22 17:24:00,
2013-08-22 11:43:00,78.0,48.0,-100.00,SE,139,4.0,10.0,34,-99.99,,,-99.99,725.919983,,2013-08-22 17:43:00,
2013-08-22 12:12:00,79.0,45.0,-100.00,SSE,165,4.0,10.0,29,-99.99,,,-99.99,799.840027,,2013-08-22 18:12:00,
2013-08-22 13:22:00,82.0,45.0,-100.00,SSE,152,6.0,11.0,27,-99.99,,,-99.99,801.239990,,2013-08-22 19:22:00,
2013-08-22 13:42:00,82.0,45.0,-100.00,South,187,5.0,13.0,26,-99.99,,,-99.99,861.900024,,2013-08-22 19:42:00,
2013-08-22 14:12:00,83.0,44.0,-100.00,SSE,151,5.0,12.0,25,-99.99,,,-99.99,864.690002,,2013-08-22 20:12:00,
2013-08-22 14:42:00,85.0,43.0,-100.00,SE,144,5.0,21.0,22,-99.99,,,-99.99,845.869995,,2013-08-22 20:42:00,
2013-08-22 15:13:00,85.0,41.0,-100.00,SE,137,8.0,18.0,21,-99.99,,,-99.99,825.640015,,2013-08-22 21:13:00,
2013-08-22 15:44:00,86.0,41.0,-100.00,SSE,150,7.0,15.0,20,-99.99,,,-99.99,829.830017,,2013-08-22 21:44:00,
2013-08-22 16:24:00,85.0,40.0,-100.00,SSE,150,8.0,13.0,20,-99.99,,,-99.99,572.510010,,2013-08-22 22:24:00,
2013-08-22 16:42:00,86.0,38.0,-100.00,SE,127,5.0,11.0,18,-99.99,,,-99.99,653.400024,,2013-08-22 22:42:00,
2013-08-22 16:53:00,86.0,38.0,-100.00,SE,138,7.0,15.0,18,-99.99,,,-99.99,599.710022,,2013-08-22 22:53:00,
2013-08-22 17:11:00,86.0,37.0,-100.00,SSE,152,10.0,18.0,17,-99.99,,,-99.99,553.679993,,2013-08-22 23:11:00,
2013-08-22 17:23:00,85.0,36.0,-100.00,South,188,8.0,14.0,17,-99.99,,,-99.99,510.450012,,2013-08-22 23:23:00,
2013-08-22 17:42:00,86.0,36.0,-100.00,SSE,167,8.0,14.0,16,-99.99,,,-99.99,465.119995,,2013-08-22 23:42:00,
2013-08-22 17:53:00,85.0,35.0,-100.00,SSE,160,8.0,16.0,16,-99.99,,,-99.99,415.609985,,2013-08-22 23:53:00,
2013-08-22 18:02:00,85.0,35.0,-100.00,SSE,160,8.0,16.0,16,-99.99,,,-99.99,415.609985,,2013-08-23 00:02:00,
2013-08-22 18:12:00,85.0,35.0,-100.00,SSE,160,8.0,16.0,16,-99.99,,,-99.99,415.609985,,2013-08-23 00:12:00,
2013-08-22 18:23:00,85.0,33.0,-100.00,SE,134,5.0,10.0,15,-99.99,,,-99.99,320.769989,,2013-08-23 00:23:00,
2013-08-22 18:42:00,85.0,32.0,-100.00,SE,137,6.0,14.0,15,-99.99,,,-99.99,268.470001,,2013-08-23 00:42:00,
2013-08-22 18:52:00,85.0,31.0,-100.00,SE,139,6.0,11.0,14,-99.99,,,-99.99,216.869995,,2013-08-23 00:52:00,
2013-08-22 19:02:00,85.0,31.0,-100.00,SE,139,6.0,11.0,14,-99.99,,,-99.99,216.869995,,2013-08-23 01:02:00,
2013-08-22 19:21:00,84.0,33.0,-100.00,SSE,150,7.0,15.0,15,-99.99,,,-99.99,122.730003,,2013-08-23 01:21:00,
2013-08-22 19:33:00,84.0,33.0,-100.00,SSE,150,7.0,15.0,15,-99.99,,,-99.99,122.730003,,2013-08-23 01:33:00,
2013-08-22 20:11:00,80.0,35.0,-100.00,South,177,3.0,7.0,19,-99.99,,,-99.99,4.880000,,2013-08-23 02:11:00,
2013-08-22 20:23:00,79.0,36.0,-100.00,West,281,1.0,3.0,21,-99.99,,,-99.99,0.700000,,2013-08-23 02:23:00,
2013-08-22 20:43:00,78.0,37.0,-100.00,NW,325,3.0,5.0,22,-99.99,,,-99.99,0.000000,,2013-08-23 02:43:00,
2013-08-22 21:55:00,73.0,37.0,-100.00,NW,322,7.0,8.0,26,-99.99,,,-99.99,0.000000,,2013-08-23 03:55:00,
2013-08-22 22:04:00,73.0,37.0,-100.00,NW,322,7.0,8.0,26,-99.99,,,-99.99,0.000000,,2013-08-23 04:04:00,
2013-08-22 22:24:00,73.0,37.0,-100.00,NW,319,7.0,9.0,26,-99.99,,,-99.99,0.000000,,2013-08-23 04:24:00,
2013-08-22 22:43:00,72.0,37.0,-100.00,NW,311,6.0,8.0,28,-99.99,,,-99.99,0.000000,,2013-08-23 04:43:00,
2013-08-22 22:54:00,72.0,37.0,-100.00,NW,319,7.0,9.0,28,-99.99,,,-99.99,0.000000,,2013-08-23 04:54:00,
2013-08-22 23:13:00,72.0,37.0,-100.00,NNW,332,5.0,8.0,28,-99.99,,,-99.99,0.000000,,2013-08-23 05:13:00,
2013-08-22 23:22:00,75.0,37.0,-100.00,ESE,108,5.0,9.0,25,-99.99,,,-99.99,0.000000,,2013-08-23 05:22:00,
2013-08-22 23:42:00,73.0,38.0,-100.00,NNW,333,5.0,8.0,27,-99.99,,,-99.99,0.000000,,2013-08-23 05:42:00,